sensor_id;sensor_type;location;lat;lon;timestamp;pressure;altitude;pressure_sealevel;temperature;humidity
19672;BME280;9983;51.114;13.788;2023-02-11T00:03:12;100993.97;;;3.18;90.23
19672;BME280;9983;51.114;13.788;2023-02-11T00:08:12;100968.06;;;3.37;91.04
19672;BME280;9983;51.114;13.788;2023-02-11T00:13:15;100967.91;;;2.96;93.32
19672;BME280;9983;51.114;13.788;2023-02-11T00:18:16;100965.13;;;3.28;92.43
19672;BME280;9983;51.114;13.788;2023-02-11T00:23:16;100968.53;;;3.16;94.04
19672;BME280;9983;51.114;13.788;2023-02-11T00:28:16;100930.59;;;3.43;92.17
19672;BME280;9983;51.114;13.788;2023-02-11T00:33:17;100922.19;;;3.51;92.35
19672;BME280;9983;51.114;13.788;2023-02-11T00:38:17;100931.22;;;3.19;95.32
19672;BME280;9983;51.114;13.788;2023-02-11T00:43:17;100921.50;;;3.62;93.13
19672;BME280;9983;51.114;13.788;2023-02-11T00:48:18;100904.53;;;3.78;92.04
19672;BME280;9983;51.114;13.788;2023-02-11T00:53:18;100886.38;;;3.30;96.00
19672;BME280;9983;51.114;13.788;2023-02-11T00:58:18;100878.81;;;3.24;95.68
19672;BME280;9983;51.114;13.788;2023-02-11T01:03:19;100871.69;;;3.38;95.29
19672;BME280;9983;51.114;13.788;2023-02-11T01:08:19;100866.31;;;3.40;95.15
19672;BME280;9983;51.114;13.788;2023-02-11T01:13:20;100858.53;;;3.51;94.89
19672;BME280;9983;51.114;13.788;2023-02-11T01:18:20;100874.63;;;3.20;96.90
19672;BME280;9983;51.114;13.788;2023-02-11T01:23:20;100881.06;;;3.58;94.97
19672;BME280;9983;51.114;13.788;2023-02-11T01:28:23;100887.88;;;3.76;93.11
19672;BME280;9983;51.114;13.788;2023-02-11T01:33:23;100879.72;;;3.79;93.75
19672;BME280;9983;51.114;13.788;2023-02-11T01:38:25;100878.75;;;3.80;93.08
19672;BME280;9983;51.114;13.788;2023-02-11T01:43:27;100865.72;;;4.31;90.45
19672;BME280;9983;51.114;13.788;2023-02-11T01:48:34;100860.59;;;3.74;93.09
19672;BME280;9983;51.114;13.788;2023-02-11T01:53:35;100855.44;;;4.39;90.54
19672;BME280;9983;51.114;13.788;2023-02-11T01:59:02;100850.09;;;4.00;92.94
19672;BME280;9983;51.114;13.788;2023-02-11T02:04:06;100839.59;;;4.25;92.70
19672;BME280;9983;51.114;13.788;2023-02-11T02:09:15;100837.34;;;3.92;94.44
19672;BME280;9983;51.114;13.788;2023-02-11T02:14:18;100832.75;;;4.21;92.52
19672;BME280;9983;51.114;13.788;2023-02-11T02:30:15;100840.03;;;4.44;91.91
19672;BME280;9983;51.114;13.788;2023-02-11T02:35:42;100819.41;;;4.35;92.52
19672;BME280;9983;51.114;13.788;2023-02-11T02:40:53;100825.13;;;4.29;93.36
19672;BME280;9983;51.114;13.788;2023-02-11T02:46:11;100806.50;;;4.56;92.31
19672;BME280;9983;51.114;13.788;2023-02-11T02:51:56;100815.00;;;4.48;91.95
19672;BME280;9983;51.114;13.788;2023-02-11T02:56:44;100814.38;;;4.57;90.83
19672;BME280;9983;51.114;13.788;2023-02-11T03:02:12;100816.31;;;4.68;90.77
19672;BME280;9983;51.114;13.788;2023-02-11T03:07:31;100829.81;;;5.03;88.44
19672;BME280;9983;51.114;13.788;2023-02-11T03:12:36;100821.97;;;5.02;88.62
19672;BME280;9983;51.114;13.788;2023-02-11T03:17:40;100808.00;;;4.73;89.28
19672;BME280;9983;51.114;13.788;2023-02-11T03:22:57;100793.78;;;4.99;86.81
19672;BME280;9983;51.114;13.788;2023-02-11T03:28:05;100793.47;;;4.91;88.88
19672;BME280;9983;51.114;13.788;2023-02-11T03:33:13;100780.16;;;4.66;89.22
19672;BME280;9983;51.114;13.788;2023-02-11T03:38:21;100775.81;;;4.90;88.88
19672;BME280;9983;51.114;13.788;2023-02-11T03:43:34;100769.31;;;4.56;91.07
19672;BME280;9983;51.114;13.788;2023-02-11T03:48:39;100754.88;;;4.73;90.89
19672;BME280;9983;51.114;13.788;2023-02-11T03:53:43;100752.53;;;4.55;91.84
19672;BME280;9983;51.114;13.788;2023-02-11T03:58:47;100742.34;;;4.49;92.55
19672;BME280;9983;51.114;13.788;2023-02-11T04:03:47;100740.63;;;4.99;89.71
19672;BME280;9983;51.114;13.788;2023-02-11T04:08:48;100731.47;;;4.78;90.34
19672;BME280;9983;51.114;13.788;2023-02-11T04:13:48;100741.47;;;4.87;89.22
19672;BME280;9983;51.114;13.788;2023-02-11T04:18:48;100751.06;;;4.77;89.96
19672;BME280;9983;51.114;13.788;2023-02-11T04:23:48;100739.44;;;5.03;89.26
19672;BME280;9983;51.114;13.788;2023-02-11T04:28:49;100749.75;;;4.70;90.89
19672;BME280;9983;51.114;13.788;2023-02-11T04:33:49;100756.59;;;4.74;90.34
19672;BME280;9983;51.114;13.788;2023-02-11T04:38:49;100745.69;;;5.02;89.59
19672;BME280;9983;51.114;13.788;2023-02-11T04:43:49;100756.75;;;4.45;93.54
19672;BME280;9983;51.114;13.788;2023-02-11T04:48:50;100766.56;;;4.70;92.90
19672;BME280;9983;51.114;13.788;2023-02-11T04:53:50;100758.06;;;4.78;92.03
19672;BME280;9983;51.114;13.788;2023-02-11T04:58:50;100759.38;;;5.21;91.02
19672;BME280;9983;51.114;13.788;2023-02-11T05:03:51;100757.81;;;5.06;92.89
19672;BME280;9983;51.114;13.788;2023-02-11T05:08:51;100745.66;;;5.27;92.29
19672;BME280;9983;51.114;13.788;2023-02-11T05:13:52;100753.78;;;5.13;95.12
19672;BME280;9983;51.114;13.788;2023-02-11T05:18:52;100759.78;;;4.66;100.00
19672;BME280;9983;51.114;13.788;2023-02-11T05:23:54;100760.53;;;4.68;100.00
19672;BME280;9983;51.114;13.788;2023-02-11T05:28:55;100756.13;;;5.05;100.00
19672;BME280;9983;51.114;13.788;2023-02-11T05:33:55;100742.97;;;4.78;100.00
19672;BME280;9983;51.114;13.788;2023-02-11T05:38:55;100732.31;;;5.04;100.00
19672;BME280;9983;51.114;13.788;2023-02-11T05:43:55;100737.66;;;4.78;100.00
19672;BME280;9983;51.114;13.788;2023-02-11T05:48:56;100727.47;;;4.34;100.00
19672;BME280;9983;51.114;13.788;2023-02-11T05:53:56;100721.63;;;4.54;100.00
19672;BME280;9983;51.114;13.788;2023-02-11T05:58:57;100735.53;;;4.45;100.00
19672;BME280;9983;51.114;13.788;2023-02-11T06:03:58;100723.00;;;4.73;100.00
19672;BME280;9983;51.114;13.788;2023-02-11T06:08:58;100728.72;;;4.29;100.00
19672;BME280;9983;51.114;13.788;2023-02-11T06:14:00;100726.59;;;4.46;100.00
19672;BME280;9983;51.114;13.788;2023-02-11T06:19:00;100720.25;;;4.49;100.00
19672;BME280;9983;51.114;13.788;2023-02-11T06:24:00;100703.25;;;4.39;100.00
19672;BME280;9983;51.114;13.788;2023-02-11T06:29:00;100694.09;;;4.30;100.00
19672;BME280;9983;51.114;13.788;2023-02-11T06:34:01;100714.72;;;4.39;100.00
19672;BME280;9983;51.114;13.788;2023-02-11T06:39:02;100700.47;;;4.40;100.00
19672;BME280;9983;51.114;13.788;2023-02-11T06:44:02;100700.28;;;4.43;100.00
19672;BME280;9983;51.114;13.788;2023-02-11T06:49:02;100708.94;;;4.20;100.00
19672;BME280;9983;51.114;13.788;2023-02-11T06:54:04;100687.53;;;4.48;100.00
19672;BME280;9983;51.114;13.788;2023-02-11T06:59:04;100688.56;;;4.84;100.00
19672;BME280;9983;51.114;13.788;2023-02-11T07:04:04;100675.94;;;4.62;100.00
19672;BME280;9983;51.114;13.788;2023-02-11T07:09:06;100682.84;;;4.65;100.00
19672;BME280;9983;51.114;13.788;2023-02-11T07:14:07;100692.28;;;4.69;100.00
19672;BME280;9983;51.114;13.788;2023-02-11T07:19:07;100705.53;;;4.94;100.00
19672;BME280;9983;51.114;13.788;2023-02-11T07:24:08;100696.13;;;4.65;100.00
19672;BME280;9983;51.114;13.788;2023-02-11T07:29:09;100720.34;;;4.47;100.00
19672;BME280;9983;51.114;13.788;2023-02-11T07:34:09;100707.88;;;4.86;100.00
19672;BME280;9983;51.114;13.788;2023-02-11T07:39:09;100708.94;;;4.96;100.00
19672;BME280;9983;51.114;13.788;2023-02-11T07:44:10;100713.44;;;4.70;100.00
19672;BME280;9983;51.114;13.788;2023-02-11T07:49:11;100700.69;;;4.63;100.00
19672;BME280;9983;51.114;13.788;2023-02-11T07:54:11;100713.22;;;4.61;100.00
19672;BME280;9983;51.114;13.788;2023-02-11T07:59:11;100714.06;;;4.74;100.00
19672;BME280;9983;51.114;13.788;2023-02-11T08:04:12;100731.09;;;4.58;100.00
19672;BME280;9983;51.114;13.788;2023-02-11T08:09:14;100715.78;;;4.75;100.00
19672;BME280;9983;51.114;13.788;2023-02-11T08:14:15;100731.28;;;4.55;100.00
19672;BME280;9983;51.114;13.788;2023-02-11T08:19:16;100719.91;;;4.79;100.00
19672;BME280;9983;51.114;13.788;2023-02-11T08:24:16;100722.53;;;5.04;100.00
19672;BME280;9983;51.114;13.788;2023-02-11T08:29:16;100712.13;;;5.01;100.00
19672;BME280;9983;51.114;13.788;2023-02-11T08:34:17;100708.22;;;5.30;100.00
19672;BME280;9983;51.114;13.788;2023-02-11T08:39:19;100702.50;;;5.11;100.00
19672;BME280;9983;51.114;13.788;2023-02-11T08:44:21;100710.50;;;5.48;100.00
19672;BME280;9983;51.114;13.788;2023-02-11T08:49:21;100701.16;;;5.66;100.00
19672;BME280;9983;51.114;13.788;2023-02-11T08:54:22;100713.66;;;5.53;100.00
19672;BME280;9983;51.114;13.788;2023-02-11T08:59:22;100713.53;;;5.30;100.00
19672;BME280;9983;51.114;13.788;2023-02-11T09:04:22;100706.88;;;5.49;100.00
19672;BME280;9983;51.114;13.788;2023-02-11T09:09:23;100728.88;;;5.27;100.00
19672;BME280;9983;51.114;13.788;2023-02-11T09:14:23;100723.28;;;5.43;100.00
19672;BME280;9983;51.114;13.788;2023-02-11T09:19:23;100728.34;;;5.82;100.00
19672;BME280;9983;51.114;13.788;2023-02-11T09:24:24;100733.44;;;6.09;100.00
19672;BME280;9983;51.114;13.788;2023-02-11T09:29:24;100742.22;;;5.98;100.00
19672;BME280;9983;51.114;13.788;2023-02-11T09:34:24;100739.66;;;5.73;100.00
19672;BME280;9983;51.114;13.788;2023-02-11T09:39:24;100748.03;;;5.92;100.00
19672;BME280;9983;51.114;13.788;2023-02-11T09:44:32;100739.38;;;5.65;100.00
19672;BME280;9983;51.114;13.788;2023-02-11T09:49:43;100724.53;;;5.50;100.00
19672;BME280;9983;51.114;13.788;2023-02-11T09:54:53;100742.13;;;5.63;100.00
19672;BME280;9983;51.114;13.788;2023-02-11T09:59:55;100728.63;;;5.66;100.00
19672;BME280;9983;51.114;13.788;2023-02-11T10:05:17;100741.06;;;5.66;100.00
19672;BME280;9983;51.114;13.788;2023-02-11T10:10:42;100731.56;;;5.51;100.00
19672;BME280;9983;51.114;13.788;2023-02-11T10:16:29;100714.84;;;5.72;100.00
19672;BME280;9983;51.114;13.788;2023-02-11T10:21:58;100712.59;;;5.55;100.00
19672;BME280;9983;51.114;13.788;2023-02-11T10:27:03;100713.31;;;5.81;100.00
19672;BME280;9983;51.114;13.788;2023-02-11T10:32:25;100701.53;;;6.31;100.00
19672;BME280;9983;51.114;13.788;2023-02-11T10:37:26;100735.25;;;6.08;100.00
19672;BME280;9983;51.114;13.788;2023-02-11T10:42:27;100711.38;;;6.53;100.00
19672;BME280;9983;51.114;13.788;2023-02-11T10:47:32;100719.66;;;6.83;100.00
19672;BME280;9983;51.114;13.788;2023-02-11T10:52:36;100704.03;;;6.11;100.00
19672;BME280;9983;51.114;13.788;2023-02-11T10:57:40;100697.28;;;6.29;100.00
19672;BME280;9983;51.114;13.788;2023-02-11T11:02:43;100704.34;;;6.41;100.00
19672;BME280;9983;51.114;13.788;2023-02-11T11:07:55;100696.13;;;6.44;100.00
19672;BME280;9983;51.114;13.788;2023-02-11T11:12:55;100699.16;;;6.04;100.00
19672;BME280;9983;51.114;13.788;2023-02-11T11:18:17;100705.31;;;6.40;100.00
19672;BME280;9983;51.114;13.788;2023-02-11T11:23:20;100702.25;;;6.22;100.00
19672;BME280;9983;51.114;13.788;2023-02-11T11:28:23;100701.22;;;6.47;100.00
19672;BME280;9983;51.114;13.788;2023-02-11T11:33:30;100699.00;;;6.30;100.00
19672;BME280;9983;51.114;13.788;2023-02-11T11:38:35;100707.94;;;6.18;100.00
19672;BME280;9983;51.114;13.788;2023-02-11T11:43:36;100693.00;;;6.04;100.00
19672;BME280;9983;51.114;13.788;2023-02-11T11:48:38;100702.41;;;6.54;100.00
19672;BME280;9983;51.114;13.788;2023-02-11T11:53:57;100720.09;;;6.55;100.00
19672;BME280;9983;51.114;13.788;2023-02-11T11:59:02;100720.09;;;6.55;100.00
19672;BME280;9983;51.114;13.788;2023-02-11T12:25:27;100702.69;;;6.73;100.00
19672;BME280;9983;51.114;13.788;2023-02-11T12:30:56;100709.41;;;6.33;100.00
19672;BME280;9983;51.114;13.788;2023-02-11T12:36:06;100712.34;;;6.41;100.00
19672;BME280;9983;51.114;13.788;2023-02-11T12:46:51;100702.16;;;6.35;100.00
19672;BME280;9983;51.114;13.788;2023-02-11T12:57:24;100704.13;;;6.55;100.00
19672;BME280;9983;51.114;13.788;2023-02-11T13:02:46;100695.91;;;6.69;100.00
19672;BME280;9983;51.114;13.788;2023-02-11T13:07:54;100691.53;;;6.57;100.00
19672;BME280;9983;51.114;13.788;2023-02-11T13:12:58;100672.13;;;6.33;100.00
19672;BME280;9983;51.114;13.788;2023-02-11T13:18:29;100669.50;;;6.66;100.00
19672;BME280;9983;51.114;13.788;2023-02-11T13:23:36;100683.28;;;6.49;100.00
19672;BME280;9983;51.114;13.788;2023-02-11T13:28:47;100674.06;;;6.53;100.00
19672;BME280;9983;51.114;13.788;2023-02-11T13:33:51;100666.84;;;6.77;100.00
19672;BME280;9983;51.114;13.788;2023-02-11T13:38:55;100662.22;;;6.46;100.00
19672;BME280;9983;51.114;13.788;2023-02-11T13:43:58;100661.97;;;6.49;100.00
19672;BME280;9983;51.114;13.788;2023-02-11T13:48:59;100661.75;;;6.52;100.00
19672;BME280;9983;51.114;13.788;2023-02-11T13:54:00;100665.84;;;6.78;100.00
19672;BME280;9983;51.114;13.788;2023-02-11T13:59:04;100675.69;;;6.67;100.00
19672;BME280;9983;51.114;13.788;2023-02-11T14:04:24;100681.13;;;6.99;100.00
19672;BME280;9983;51.114;13.788;2023-02-11T14:09:43;100674.59;;;7.03;100.00
19672;BME280;9983;51.114;13.788;2023-02-11T14:15:00;100678.44;;;6.88;100.00
19672;BME280;9983;51.114;13.788;2023-02-11T14:20:02;100673.97;;;6.88;100.00
19672;BME280;9983;51.114;13.788;2023-02-11T14:25:15;100682.84;;;6.77;100.00
19672;BME280;9983;51.114;13.788;2023-02-11T14:30:33;100681.84;;;6.90;100.00
19672;BME280;9983;51.114;13.788;2023-02-11T14:35:47;100673.50;;;6.94;100.00
19672;BME280;9983;51.114;13.788;2023-02-11T14:41:16;100692.66;;;6.77;100.00
19672;BME280;9983;51.114;13.788;2023-02-11T14:46:20;100689.38;;;6.84;100.00
19672;BME280;9983;51.114;13.788;2023-02-11T14:51:24;100682.31;;;6.61;100.00
19672;BME280;9983;51.114;13.788;2023-02-11T14:56:28;100672.63;;;6.71;100.00
19672;BME280;9983;51.114;13.788;2023-02-11T15:01:35;100679.19;;;6.78;100.00
19672;BME280;9983;51.114;13.788;2023-02-11T15:06:41;100681.59;;;6.70;100.00
19672;BME280;9983;51.114;13.788;2023-02-11T15:11:47;100696.63;;;6.49;100.00
19672;BME280;9983;51.114;13.788;2023-02-11T15:16:48;100679.91;;;6.92;100.00
19672;BME280;9983;51.114;13.788;2023-02-11T15:21:51;100683.28;;;7.05;100.00
19672;BME280;9983;51.114;13.788;2023-02-11T15:26:56;100686.56;;;7.08;100.00
19672;BME280;9983;51.114;13.788;2023-02-11T15:32:13;100698.09;;;7.09;100.00
19672;BME280;9983;51.114;13.788;2023-02-11T15:37:22;100693.25;;;7.03;100.00
19672;BME280;9983;51.114;13.788;2023-02-11T15:42:28;100693.97;;;6.94;100.00
19672;BME280;9983;51.114;13.788;2023-02-11T15:47:29;100701.00;;;6.72;100.00
19672;BME280;9983;51.114;13.788;2023-02-11T15:52:30;100691.03;;;6.63;100.00
19672;BME280;9983;51.114;13.788;2023-02-11T15:57:30;100702.91;;;6.70;100.00
19672;BME280;9983;51.114;13.788;2023-02-11T16:02:33;100702.91;;;6.70;100.00
19672;BME280;9983;51.114;13.788;2023-02-11T16:07:40;100697.84;;;6.67;100.00
19672;BME280;9983;51.114;13.788;2023-02-11T16:12:50;100716.16;;;6.83;100.00
19672;BME280;9983;51.114;13.788;2023-02-11T16:17:50;100714.81;;;6.77;100.00
19672;BME280;9983;51.114;13.788;2023-02-11T16:22:52;100719.66;;;7.06;100.00
19672;BME280;9983;51.114;13.788;2023-02-11T16:27:53;100728.16;;;7.00;100.00
19672;BME280;9983;51.114;13.788;2023-02-11T16:32:53;100734.16;;;6.57;100.00
19672;BME280;9983;51.114;13.788;2023-02-11T16:37:54;100725.22;;;6.58;100.00
19672;BME280;9983;51.114;13.788;2023-02-11T16:42:54;100744.31;;;6.41;100.00
19672;BME280;9983;51.114;13.788;2023-02-11T16:47:55;100730.88;;;6.42;100.00
19672;BME280;9983;51.114;13.788;2023-02-11T16:52:55;100732.56;;;6.43;100.00
19672;BME280;9983;51.114;13.788;2023-02-11T16:57:55;100740.41;;;6.34;100.00
19672;BME280;9983;51.114;13.788;2023-02-11T17:02:55;100750.03;;;6.13;100.00
19672;BME280;9983;51.114;13.788;2023-02-11T17:07:56;100755.81;;;6.06;100.00
19672;BME280;9983;51.114;13.788;2023-02-11T17:12:56;100766.28;;;6.21;100.00
19672;BME280;9983;51.114;13.788;2023-02-11T17:17:57;100772.34;;;6.23;100.00
19672;BME280;9983;51.114;13.788;2023-02-11T17:22:57;100770.69;;;6.33;100.00
19672;BME280;9983;51.114;13.788;2023-02-11T17:27:58;100783.31;;;6.42;100.00
19672;BME280;9983;51.114;13.788;2023-02-11T17:32:58;100793.56;;;6.00;100.00
19672;BME280;9983;51.114;13.788;2023-02-11T17:37:58;100789.25;;;6.11;100.00
19672;BME280;9983;51.114;13.788;2023-02-11T17:43:00;100782.78;;;6.37;100.00
19672;BME280;9983;51.114;13.788;2023-02-11T17:48:00;100777.19;;;6.29;100.00
19672;BME280;9983;51.114;13.788;2023-02-11T17:53:01;100789.97;;;6.13;100.00
19672;BME280;9983;51.114;13.788;2023-02-11T17:58:01;100794.56;;;6.11;100.00
19672;BME280;9983;51.114;13.788;2023-02-11T18:03:01;100802.56;;;6.11;100.00
19672;BME280;9983;51.114;13.788;2023-02-11T18:08:03;100815.63;;;6.14;100.00
19672;BME280;9983;51.114;13.788;2023-02-11T18:13:04;100822.47;;;6.53;100.00
19672;BME280;9983;51.114;13.788;2023-02-11T18:18:04;100823.22;;;6.31;100.00
19672;BME280;9983;51.114;13.788;2023-02-11T18:23:04;100831.56;;;6.26;100.00
19672;BME280;9983;51.114;13.788;2023-02-11T18:28:05;100840.44;;;6.38;100.00
19672;BME280;9983;51.114;13.788;2023-02-11T18:33:05;100846.78;;;6.48;100.00
19672;BME280;9983;51.114;13.788;2023-02-11T18:38:08;100850.34;;;6.12;100.00
19672;BME280;9983;51.114;13.788;2023-02-11T18:43:08;100854.56;;;6.27;100.00
19672;BME280;9983;51.114;13.788;2023-02-11T18:48:09;100856.38;;;6.27;100.00
19672;BME280;9983;51.114;13.788;2023-02-11T18:53:11;100861.63;;;6.16;100.00
19672;BME280;9983;51.114;13.788;2023-02-11T18:58:12;100874.38;;;6.23;100.00
19672;BME280;9983;51.114;13.788;2023-02-11T19:03:14;100873.03;;;6.18;100.00
19672;BME280;9983;51.114;13.788;2023-02-11T19:08:15;100876.75;;;6.15;100.00
19672;BME280;9983;51.114;13.788;2023-02-11T19:13:16;100876.94;;;6.25;100.00
19672;BME280;9983;51.114;13.788;2023-02-11T19:18:16;100890.44;;;6.11;100.00
19672;BME280;9983;51.114;13.788;2023-02-11T19:23:16;100896.94;;;6.30;100.00
19672;BME280;9983;51.114;13.788;2023-02-11T19:28:16;100903.94;;;6.44;100.00
19672;BME280;9983;51.114;13.788;2023-02-11T19:33:17;100918.38;;;6.76;100.00
19672;BME280;9983;51.114;13.788;2023-02-11T19:38:17;100919.53;;;6.72;100.00
19672;BME280;9983;51.114;13.788;2023-02-11T19:43:18;100913.44;;;6.59;100.00
19672;BME280;9983;51.114;13.788;2023-02-11T19:48:18;100911.50;;;6.61;100.00
19672;BME280;9983;51.114;13.788;2023-02-11T19:53:18;100917.53;;;6.52;100.00
19672;BME280;9983;51.114;13.788;2023-02-11T19:58:19;100936.94;;;6.89;100.00
19672;BME280;9983;51.114;13.788;2023-02-11T20:03:19;100936.41;;;7.08;100.00
19672;BME280;9983;51.114;13.788;2023-02-11T20:08:19;100952.34;;;6.97;100.00
19672;BME280;9983;51.114;13.788;2023-02-11T20:13:19;100960.09;;;6.41;100.00
19672;BME280;9983;51.114;13.788;2023-02-11T20:18:20;100965.03;;;6.58;100.00
19672;BME280;9983;51.114;13.788;2023-02-11T20:23:20;100969.44;;;6.70;100.00
19672;BME280;9983;51.114;13.788;2023-02-11T20:28:20;100970.13;;;6.61;100.00
19672;BME280;9983;51.114;13.788;2023-02-11T20:33:20;100975.91;;;6.55;100.00
19672;BME280;9983;51.114;13.788;2023-02-11T20:38:21;100956.75;;;6.50;100.00
19672;BME280;9983;51.114;13.788;2023-02-11T20:43:21;100955.84;;;6.62;100.00
19672;BME280;9983;51.114;13.788;2023-02-11T20:48:21;100948.41;;;6.78;100.00
19672;BME280;9983;51.114;13.788;2023-02-11T20:53:22;100960.09;;;6.65;100.00
19672;BME280;9983;51.114;13.788;2023-02-11T20:58:22;100946.34;;;6.82;100.00
19672;BME280;9983;51.114;13.788;2023-02-11T21:03:22;100945.97;;;6.75;100.00
19672;BME280;9983;51.114;13.788;2023-02-11T21:08:23;100947.91;;;6.26;100.00
19672;BME280;9983;51.114;13.788;2023-02-11T21:13:23;100951.31;;;6.75;100.00
19672;BME280;9983;51.114;13.788;2023-02-11T21:18:24;100955.47;;;6.91;100.00
19672;BME280;9983;51.114;13.788;2023-02-11T21:23:24;100971.69;;;6.88;100.00
19672;BME280;9983;51.114;13.788;2023-02-11T21:28:25;100981.88;;;6.82;100.00
19672;BME280;9983;51.114;13.788;2023-02-11T21:33:26;100977.28;;;6.84;100.00
19672;BME280;9983;51.114;13.788;2023-02-11T21:38:27;100991.41;;;6.74;100.00
19672;BME280;9983;51.114;13.788;2023-02-11T21:43:28;100987.38;;;6.68;100.00
19672;BME280;9983;51.114;13.788;2023-02-11T21:48:28;101000.06;;;6.89;100.00
19672;BME280;9983;51.114;13.788;2023-02-11T21:53:28;101001.78;;;6.90;100.00
19672;BME280;9983;51.114;13.788;2023-02-11T21:58:28;101011.94;;;6.84;100.00
19672;BME280;9983;51.114;13.788;2023-02-11T22:03:29;101015.28;;;6.75;100.00
19672;BME280;9983;51.114;13.788;2023-02-11T22:08:29;101021.84;;;6.82;100.00
19672;BME280;9983;51.114;13.788;2023-02-11T22:13:31;101017.00;;;6.76;100.00
19672;BME280;9983;51.114;13.788;2023-02-11T22:18:31;101012.34;;;6.67;100.00
19672;BME280;9983;51.114;13.788;2023-02-11T22:23:32;101038.31;;;6.76;100.00
19672;BME280;9983;51.114;13.788;2023-02-11T22:28:32;101036.41;;;6.66;100.00
19672;BME280;9983;51.114;13.788;2023-02-11T22:33:33;101031.03;;;6.78;100.00
19672;BME280;9983;51.114;13.788;2023-02-11T22:38:34;101041.19;;;6.73;100.00
19672;BME280;9983;51.114;13.788;2023-02-11T22:43:34;101033.19;;;6.73;100.00
19672;BME280;9983;51.114;13.788;2023-02-11T22:48:35;101045.28;;;6.90;100.00
19672;BME280;9983;51.114;13.788;2023-02-11T22:53:35;101057.53;;;6.93;100.00
19672;BME280;9983;51.114;13.788;2023-02-11T22:58:36;101061.25;;;7.03;100.00
19672;BME280;9983;51.114;13.788;2023-02-11T23:03:37;101073.28;;;6.72;100.00
19672;BME280;9983;51.114;13.788;2023-02-11T23:08:39;101072.59;;;6.94;100.00
19672;BME280;9983;51.114;13.788;2023-02-11T23:13:40;101081.72;;;7.02;100.00
19672;BME280;9983;51.114;13.788;2023-02-11T23:18:42;101083.69;;;6.88;100.00
19672;BME280;9983;51.114;13.788;2023-02-11T23:23:43;101075.69;;;6.88;100.00
19672;BME280;9983;51.114;13.788;2023-02-11T23:28:44;101084.94;;;6.95;100.00
19672;BME280;9983;51.114;13.788;2023-02-11T23:33:45;101099.00;;;6.97;100.00
19672;BME280;9983;51.114;13.788;2023-02-11T23:38:46;101100.22;;;6.93;100.00
19672;BME280;9983;51.114;13.788;2023-02-11T23:43:51;101111.00;;;6.78;100.00
19672;BME280;9983;51.114;13.788;2023-02-11T23:48:52;101093.78;;;6.95;100.00
19672;BME280;9983;51.114;13.788;2023-02-11T23:53:52;101101.25;;;7.03;100.00
19672;BME280;9983;51.114;13.788;2023-02-11T23:58:57;101092.72;;;6.98;100.00
